Solidarnosc (vanuatu) — YJZC9 — position and weather

sailwx.info

Track history (hours):
 
Tides and Currents Weather Stations Pressure Air Temp Water Temp Dewpoint Dewpoint Depression Visibility Wind Speed Wind Dir Waves Ship Positions

Solidarnosc (vanuatu)

Last reported at 2015-Jun-06 17:20 UTC. Time now 2015-Jul-03 07:50 UTC.
Position N 27°34' W 016°33'.
Warning: this ship's position is 26 days out of date.

Length 229 m; beam 32 m.

Type: Ship. MMSI: 576005000.

Date/timePositionNaut miles runAvg speedWind from/ knotsBaromVisibWave heightAir tempDewpointWater temp
2015-Jun-06 17:20N 27°34' W 016°33'911.4
2015-Jun-06 16:33N 27°42' W 016°29'1211.7
2015-Jun-06 15:33N 27°53' W 016°23'1211.7
2015-Jun-06 14:33N 28°03' W 016°17'1312.0
2015-Jun-06 13:26N 28°14' W 016°07'1112.1
2015-Jun-06 12:33N 28°22' W 015°60'1211.7
2015-Jun-06 11:33N 28°31' W 015°51'1111.5
2015-Jun-06 10:33N 28°40' W 015°44'1211.7
2015-Jun-06 09:33N 28°52' W 015°40'1211.5
2015-Jun-06 08:31N 29°03' W 015°37'1211.8
2015-Jun-06 07:30N 29°15' W 015°33'19011.7
2015-Jun-05 15:17N 32°18' W 014°33'13811.4
2015-Jun-05 03:12N 34°30' W 013°46'711.3
2015-Jun-05 02:33N 34°37' W 013°43'1211.6
2015-Jun-05 01:32N 34°49' W 013°39'1111.5
2015-Jun-05 00:33N 34°60' W 013°36'1211.6
2015-Jun-04 23:33N 35°11' W 013°32'1211.6
2015-Jun-04 22:33N 35°22' W 013°28'1111.4
2015-Jun-04 21:33N 35°33' W 013°24'1111.3
2015-Jun-04 20:33N 35°44' W 013°20'1111.2
2015-Jun-04 19:31N 35°55' W 013°17'1211.5
2015-Jun-04 18:31N 36°06' W 013°13'1111.4
2015-Jun-04 17:33N 36°17' W 013°10'1211.5
2015-Jun-04 16:31N 36°28' W 013°06'1111.4
2015-Jun-04 15:32N 36°39' W 013°02'1111.7
2015-Jun-04 14:33N 36°50' W 012°59'1411.8
2015-Jun-04 13:23N 37°03' W 012°52'1011.6
2015-Jun-04 12:31N 37°12' W 012°48'1111.5
2015-Jun-04 11:33N 37°23' W 012°45'1211.5
2015-Jun-04 10:33N 37°34' W 012°40'1111.6
2015-Jun-04 09:33N 37°45' W 012°36'1211.7
2015-Jun-04 08:33N 37°56' W 012°32'1211.6
2015-Jun-04 07:32N 38°08' W 012°28'1111.3
2015-Jun-04 06:33N 38°18' W 012°24'1211.7
2015-Jun-04 05:33N 38°30' W 012°20'1211.8
2015-Jun-04 04:33N 38°41' W 012°16'1211.7
2015-Jun-04 03:32N 38°52' W 012°11'2411.7
2015-Jun-04 01:30N 39°15' W 012°03'1111.6
2015-Jun-04 00:33N 39°26' W 011°58'1611.8
2015-Jun-03 23:12N 39°41' W 011°52'811.6
2015-Jun-03 22:32N 39°48' W 011°49'1711.5
2015-Jun-03 21:05N 40°03' W 011°40'33 7.1
2015-Jun-03 16:30N 40°34' W 011°25'2 1.1
2015-Jun-03 14:16N 40°36' W 011°27'  
2015-May-31 15:13N 50°00' W 002°54'7212.5
2015-May-31 09:28N 50°20' W 001°06'11 9.6
2015-May-31 08:20N 50°23' W 000°50'8 8.7
2015-May-31 07:24N 50°25' W 000°37'9 8.8
2015-May-31 06:24N 50°27' W 000°24'2010.1
2015-May-31 04:23N 50°33' E 000°07'1011.6
2015-May-31 03:33N 50°36' E 000°21'1212.1
2015-May-31 02:33N 50°40' E 000°39'1212.1
2015-May-31 01:33N 50°47' E 000°55'1111.4
2015-May-31 00:34N 50°54' E 001°09'1010.3
2015-May-30 23:34N 51°01' E 001°21'9 8.9
2015-May-30 22:34N 51°07' E 001°32'8 8.2
2015-May-30 21:34N 51°04' E 001°44'9 9.4
2015-May-30 20:33N 51°03' E 001°59'1110.5
2015-May-30 19:33N 51°04' E 002°16'3 2.9
2015-May-30 18:34N 51°03' E 002°20'3 2.7
2015-May-30 17:34N 51°03' E 002°16'0 0.2
2015-May-30 16:31N 51°03' E 002°17'0 0.0
2015-May-30 15:31N 51°03' E 002°17'0 0.0
2015-May-30 14:31N 51°03' E 002°17'0 0.0
2015-May-30 13:22N 51°03' E 002°17'0 0.0
2015-May-30 12:25N 51°03' E 002°17'0 0.0
2015-May-30 11:22N 51°03' E 002°17'0 0.0
2015-May-30 10:25N 51°03' E 002°17'0 0.0
2015-May-30 09:31N 51°03' E 002°17'0 0.0
2015-May-30 08:07N 51°03' E 002°17'0 0.0
2015-May-30 07:28N 51°03' E 002°17'0 0.0
2015-May-30 06:28N 51°03' E 002°17'0 0.0
2015-May-30 05:28N 51°03' E 002°17'0 0.0
2015-May-30 04:32N 51°03' E 002°17'0 0.0
2015-May-30 03:20N 51°03' E 002°17'0 0.0
2015-May-30 02:23N 51°03' E 002°17'0 0.0
2015-May-30 01:32N 51°03' E 002°17'0 0.0
2015-May-30 00:32N 51°03' E 002°17'0 0.0
2015-May-29 23:32N 51°03' E 002°17'0 0.0
2015-May-29 22:32N 51°03' E 002°17'0 0.0
2015-May-29 21:26N 51°03' E 002°17'0 0.0
2015-May-29 20:29N 51°03' E 002°17'0 0.0
2015-May-29 19:26N 51°03' E 002°17'0 0.0
2015-May-29 18:26N 51°03' E 002°17'0 0.0
2015-May-29 17:08N 51°03' E 002°17'0 0.0
2015-May-29 16:26N 51°03' E 002°17'0 0.0
2015-May-29 15:32N 51°03' E 002°17'0 0.0
2015-May-29 14:32N 51°03' E 002°17'0 0.0
2015-May-29 13:23N 51°03' E 002°17'0 0.0
2015-May-29 12:32N 51°03' E 002°17'0 0.0
2015-May-29 11:29N 51°03' E 002°17'0 0.0
2015-May-29 10:32N 51°03' E 002°17'0 0.0
2015-May-29 09:32N 51°03' E 002°17'0 0.0
2015-May-29 08:29N 51°03' E 002°17'0 0.0
2015-May-29 07:32N 51°03' E 002°17'0 0.0
2015-May-29 05:29N 51°03' E 002°17'0 0.0
2015-May-29 04:26N 51°03' E 002°17'0 0.0
2015-May-29 03:29N 51°03' E 002°17'0 0.0
2015-May-29 02:29N 51°03' E 002°17'0 0.0
2015-May-29 01:29N 51°03' E 002°17'0 0.0
2015-May-29 00:32N 51°03' E 002°17'0 0.0
2015-May-28 23:34N 51°03' E 002°17'3 2.6
2015-May-28 22:33N 51°03' E 002°21'4 4.1
2015-May-28 21:33N 51°04' E 002°14'1414.0
2015-May-28 20:34N 51°02' E 001°52'2 2.2
2015-May-28 19:33N 51°03' E 001°49'0 0.1
2015-May-28 18:31N 51°03' E 001°49'0 0.1
2015-May-28 17:31N 51°03' E 001°49'0 0.3
2015-May-28 16:31N 51°03' E 001°48'0 0.0
2015-May-28 15:31N 51°03' E 001°48'0 0.0
2015-May-28 14:31N 51°03' E 001°48'0 0.1
2015-May-28 13:31N 51°03' E 001°48'0 0.3
2015-May-28 12:28N 51°03' E 001°49'0 0.0
2015-May-28 11:31N 51°03' E 001°49'0 0.0
2015-May-28 10:31N 51°03' E 001°49'0 0.0
2015-May-28 09:31N 51°03' E 001°49'0 0.0
2015-May-28 08:31N 51°03' E 001°49'0 0.0
2015-May-28 07:31N 51°03' E 001°49'1 1.5
2015-May-28 06:33N 51°03' E 001°46'6 5.5
2015-May-28 05:33N 51°01' E 001°38'1312.5
2015-May-28 04:33N 50°51' E 001°26'1412.6
2015-May-28 03:28N 50°39' E 001°16'1412.8
2015-May-28 02:20N 50°29' E 000°59'1213.0
2015-May-28 01:26N 50°26' E 000°41'1212.7
2015-May-28 00:30N 50°22' E 000°23'1611.8
2015-May-27 23:07N 50°16' W 000°00'2212.1
2015-May-27 21:20N 49°57' W 000°16'1012.4
2015-May-27 20:33N 49°48' W 000°22'1212.2
2015-May-27 19:33N 49°37' W 000°30'1212.3
2015-May-27 18:33N 49°31' W 000°14'1111.5
2015-May-27 17:33N 49°27' E 000°03'  
Track history (hours):
 
Tides and Currents Weather Stations Pressure Air Temp Water Temp Dewpoint Dewpoint Depression Visibility Wind Speed Wind Dir Waves Ship Positions

Solidarnosc (vanuatu)

Last reported at 2015-Jun-06 17:20 UTC. Time now 2015-Jul-03 07:50 UTC.
Position N 27°34' W 016°33'.
Warning: this ship's position is 26 days out of date.

Length 229 m; beam 32 m.

Type: Ship. MMSI: 576005000.

Date/timePositionNaut miles runAvg speedWind from/ knotsBaromVisibWave heightAir tempDewpointWater temp
2015-Jun-06 17:20N 27°34' W 016°33'911.4
2015-Jun-06 16:33N 27°42' W 016°29'1211.7
2015-Jun-06 15:33N 27°53' W 016°23'1211.7
2015-Jun-06 14:33N 28°03' W 016°17'1312.0
2015-Jun-06 13:26N 28°14' W 016°07'1112.1
2015-Jun-06 12:33N 28°22' W 015°60'1211.7
2015-Jun-06 11:33N 28°31' W 015°51'1111.5
2015-Jun-06 10:33N 28°40' W 015°44'1211.7
2015-Jun-06 09:33N 28°52' W 015°40'1211.5
2015-Jun-06 08:31N 29°03' W 015°37'1211.8
2015-Jun-06 07:30N 29°15' W 015°33'19011.7
2015-Jun-05 15:17N 32°18' W 014°33'13811.4
2015-Jun-05 03:12N 34°30' W 013°46'711.3
2015-Jun-05 02:33N 34°37' W 013°43'1211.6
2015-Jun-05 01:32N 34°49' W 013°39'1111.5
2015-Jun-05 00:33N 34°60' W 013°36'1211.6
2015-Jun-04 23:33N 35°11' W 013°32'1211.6
2015-Jun-04 22:33N 35°22' W 013°28'1111.4
2015-Jun-04 21:33N 35°33' W 013°24'1111.3
2015-Jun-04 20:33N 35°44' W 013°20'1111.2
2015-Jun-04 19:31N 35°55' W 013°17'1211.5
2015-Jun-04 18:31N 36°06' W 013°13'1111.4
2015-Jun-04 17:33N 36°17' W 013°10'1211.5
2015-Jun-04 16:31N 36°28' W 013°06'1111.4
2015-Jun-04 15:32N 36°39' W 013°02'1111.7
2015-Jun-04 14:33N 36°50' W 012°59'1411.8
2015-Jun-04 13:23N 37°03' W 012°52'1011.6
2015-Jun-04 12:31N 37°12' W 012°48'1111.5
2015-Jun-04 11:33N 37°23' W 012°45'1211.5
2015-Jun-04 10:33N 37°34' W 012°40'1111.6
2015-Jun-04 09:33N 37°45' W 012°36'1211.7
2015-Jun-04 08:33N 37°56' W 012°32'1211.6
2015-Jun-04 07:32N 38°08' W 012°28'1111.3
2015-Jun-04 06:33N 38°18' W 012°24'1211.7
2015-Jun-04 05:33N 38°30' W 012°20'1211.8
2015-Jun-04 04:33N 38°41' W 012°16'1211.7
2015-Jun-04 03:32N 38°52' W 012°11'2411.7
2015-Jun-04 01:30N 39°15' W 012°03'1111.6
2015-Jun-04 00:33N 39°26' W 011°58'1611.8
2015-Jun-03 23:12N 39°41' W 011°52'811.6
2015-Jun-03 22:32N 39°48' W 011°49'1711.5
2015-Jun-03 21:05N 40°03' W 011°40'33 7.1
2015-Jun-03 16:30N 40°34' W 011°25'2 1.1
2015-Jun-03 14:16N 40°36' W 011°27'  
2015-May-31 15:13N 50°00' W 002°54'7212.5
2015-May-31 09:28N 50°20' W 001°06'11 9.6
2015-May-31 08:20N 50°23' W 000°50'8 8.7
2015-May-31 07:24N 50°25' W 000°37'9 8.8
2015-May-31 06:24N 50°27' W 000°24'2010.1
2015-May-31 04:23N 50°33' E 000°07'1011.6
2015-May-31 03:33N 50°36' E 000°21'1212.1
2015-May-31 02:33N 50°40' E 000°39'1212.1
2015-May-31 01:33N 50°47' E 000°55'1111.4
2015-May-31 00:34N 50°54' E 001°09'1010.3
2015-May-30 23:34N 51°01' E 001°21'9 8.9
2015-May-30 22:34N 51°07' E 001°32'8 8.2
2015-May-30 21:34N 51°04' E 001°44'9 9.4
2015-May-30 20:33N 51°03' E 001°59'1110.5
2015-May-30 19:33N 51°04' E 002°16'3 2.9
2015-May-30 18:34N 51°03' E 002°20'3 2.7
2015-May-30 17:34N 51°03' E 002°16'0 0.2
2015-May-30 16:31N 51°03' E 002°17'0 0.0
2015-May-30 15:31N 51°03' E 002°17'0 0.0
2015-May-30 14:31N 51°03' E 002°17'0 0.0
2015-May-30 13:22N 51°03' E 002°17'0 0.0
2015-May-30 12:25N 51°03' E 002°17'0 0.0
2015-May-30 11:22N 51°03' E 002°17'0 0.0
2015-May-30 10:25N 51°03' E 002°17'0 0.0
2015-May-30 09:31N 51°03' E 002°17'0 0.0
2015-May-30 08:07N 51°03' E 002°17'0 0.0
2015-May-30 07:28N 51°03' E 002°17'0 0.0
2015-May-30 06:28N 51°03' E 002°17'0 0.0
2015-May-30 05:28N 51°03' E 002°17'0 0.0
2015-May-30 04:32N 51°03' E 002°17'0 0.0
2015-May-30 03:20N 51°03' E 002°17'0 0.0
2015-May-30 02:23N 51°03' E 002°17'0 0.0
2015-May-30 01:32N 51°03' E 002°17'0 0.0
2015-May-30 00:32N 51°03' E 002°17'0 0.0
2015-May-29 23:32N 51°03' E 002°17'0 0.0
2015-May-29 22:32N 51°03' E 002°17'0 0.0
2015-May-29 21:26N 51°03' E 002°17'0 0.0
2015-May-29 20:29N 51°03' E 002°17'0 0.0
2015-May-29 19:26N 51°03' E 002°17'0 0.0
2015-May-29 18:26N 51°03' E 002°17'0 0.0
2015-May-29 17:08N 51°03' E 002°17'0 0.0
2015-May-29 16:26N 51°03' E 002°17'0 0.0
2015-May-29 15:32N 51°03' E 002°17'0 0.0
2015-May-29 14:32N 51°03' E 002°17'0 0.0
2015-May-29 13:23N 51°03' E 002°17'0 0.0
2015-May-29 12:32N 51°03' E 002°17'0 0.0
2015-May-29 11:29N 51°03' E 002°17'0 0.0
2015-May-29 10:32N 51°03' E 002°17'0 0.0
2015-May-29 09:32N 51°03' E 002°17'0 0.0
2015-May-29 08:29N 51°03' E 002°17'0 0.0
2015-May-29 07:32N 51°03' E 002°17'0 0.0
2015-May-29 05:29N 51°03' E 002°17'0 0.0
2015-May-29 04:26N 51°03' E 002°17'0 0.0
2015-May-29 03:29N 51°03' E 002°17'0 0.0
2015-May-29 02:29N 51°03' E 002°17'0 0.0
2015-May-29 01:29N 51°03' E 002°17'0 0.0
2015-May-29 00:32N 51°03' E 002°17'0 0.0
2015-May-28 23:34N 51°03' E 002°17'3 2.6
2015-May-28 22:33N 51°03' E 002°21'4 4.1
2015-May-28 21:33N 51°04' E 002°14'1414.0
2015-May-28 20:34N 51°02' E 001°52'2 2.2
2015-May-28 19:33N 51°03' E 001°49'0 0.1
2015-May-28 18:31N 51°03' E 001°49'0 0.1
2015-May-28 17:31N 51°03' E 001°49'0 0.3
2015-May-28 16:31N 51°03' E 001°48'0 0.0
2015-May-28 15:31N 51°03' E 001°48'0 0.0
2015-May-28 14:31N 51°03' E 001°48'0 0.1
2015-May-28 13:31N 51°03' E 001°48'0 0.3
2015-May-28 12:28N 51°03' E 001°49'0 0.0
2015-May-28 11:31N 51°03' E 001°49'0 0.0
2015-May-28 10:31N 51°03' E 001°49'0 0.0
2015-May-28 09:31N 51°03' E 001°49'0 0.0
2015-May-28 08:31N 51°03' E 001°49'0 0.0
2015-May-28 07:31N 51°03' E 001°49'1 1.5
2015-May-28 06:33N 51°03' E 001°46'6 5.5
2015-May-28 05:33N 51°01' E 001°38'1312.5
2015-May-28 04:33N 50°51' E 001°26'1412.6
2015-May-28 03:28N 50°39' E 001°16'1412.8
2015-May-28 02:20N 50°29' E 000°59'1213.0
2015-May-28 01:26N 50°26' E 000°41'1212.7
2015-May-28 00:30N 50°22' E 000°23'1611.8
2015-May-27 23:07N 50°16' W 000°00'2212.1
2015-May-27 21:20N 49°57' W 000°16'1012.4
2015-May-27 20:33N 49°48' W 000°22'1212.2
2015-May-27 19:33N 49°37' W 000°30'1212.3
2015-May-27 18:33N 49°31' W 000°14'1111.5
2015-May-27 17:33N 49°27' E 000°03'  

Dump ship's entire track history